MSC Clorinda — 3FDW7 — position and weather

sailwx.info

Track history (hours):
 
Tides and Currents Weather Stations Pressure Air Temp Water Temp Dewpoint Dewpoint Depression Visibility Wind Speed Wind Dir Waves Ship Positions

MSC Clorinda

Last reported at 2017-Sep-19 10:01 UTC. Time now 2017-Sep-19 15:33 UTC.
Position N 34°48' E 019°02'.

Length 366 m; draft 14.3 m.

Type: Ship (hazmat cat A). MMSI: 373233000.

Date/timePositionNaut miles runAvg speedWind from/ knotsBaromVisibWave heightAir tempDewpointWater temp
2017-Sep-19 10:01N 34°48' E 019°02'020.4
2017-Sep-19 10:00N 34°48' E 019°02'22020.2
2017-Sep-18 23:04N 35°46' E 014°41'8 0.5
2017-Sep-18 08:35N 35°49' E 014°33'0 0.1
2017-Sep-18 08:26N 35°49' E 014°33'0 0.0
2017-Sep-18 07:59N 35°49' E 014°33'0 0.0
2017-Sep-18 07:14N 35°49' E 014°33'0 0.0
2017-Sep-18 06:56N 35°49' E 014°33'0 0.0
2017-Sep-18 05:50N 35°49' E 014°33'0 0.5
2017-Sep-18 05:31N 35°49' E 014°33'2 4.7
2017-Sep-18 05:01N 35°47' E 014°34'5 9.3
2017-Sep-18 04:29N 35°44' E 014°29'716.1
2017-Sep-18 04:01N 35°45' E 014°20'1019.1
2017-Sep-18 03:30N 35°50' E 014°10'1019.1
2017-Sep-18 03:00N 35°55' E 014°00'919.1
2017-Sep-18 02:30N 36°00' E 013°50'1019.4
2017-Sep-18 02:00N 36°06' E 013°40'1119.3
2017-Sep-18 01:25N 36°12' E 013°28'1019.1
2017-Sep-18 00:54N 36°17' E 013°18'1118.9
2017-Sep-18 00:20N 36°23' E 013°07'618.9
2017-Sep-18 00:00N 36°26' E 013°00'918.9
2017-Sep-17 23:30N 36°31' E 012°51'1019.0
2017-Sep-17 23:00N 36°37' E 012°41'919.1
2017-Sep-17 22:30N 36°42' E 012°31'1019.2
2017-Sep-17 22:00N 36°47' E 012°20'1019.5
2017-Sep-17 21:30N 36°52' E 012°10'46620.0
2017-Sep-16 22:12N 40°40' E 003°29'422.0
2017-Sep-16 22:00N 40°42' E 003°24'1121.8
2017-Sep-16 21:30N 40°48' E 003°12'1121.4
2017-Sep-16 21:00N 40°54' E 003°00'1120.8
2017-Sep-16 20:30N 40°59' E 002°48'1020.4
2017-Sep-16 20:00N 41°04' E 002°37'1020.0
2017-Sep-16 19:30N 41°09' E 002°26'916.8
2017-Sep-16 18:58N 41°14' E 002°16'5 0.2
2017-Sep-15 18:03N 41°18' E 002°10'1 5.9
2017-Sep-15 17:48N 41°17' E 002°11'7 4.9
2017-Sep-15 16:21N 41°11' E 002°07'412.2
2017-Sep-15 16:00N 41°07' E 002°04'816.5
2017-Sep-15 15:30N 41°00' E 001°57'919.1
2017-Sep-15 15:00N 40°53' E 001°50'1019.1
2017-Sep-15 14:30N 40°45' E 001°43'919.0
2017-Sep-15 14:00N 40°37' E 001°36'918.5
2017-Sep-15 13:30N 40°29' E 001°29'918.3
2017-Sep-15 13:00N 40°22' E 001°22'918.3
2017-Sep-15 12:31N 40°14' E 001°15'918.3
2017-Sep-15 12:00N 40°07' E 001°08'918.4
2017-Sep-15 11:30N 39°59' E 001°02'22 0.5
2017-Sep-13 17:27N 39°43' E 000°41'613.1
2017-Sep-13 16:58N 39°46' E 000°49'613.0
2017-Sep-13 16:30N 39°49' E 000°55'713.5
2017-Sep-13 15:59N 39°54' E 001°01'613.5
2017-Sep-13 15:30N 39°59' E 001°08'714.5
2017-Sep-13 15:00N 40°04' E 001°14'714.5
2017-Sep-13 14:30N 40°09' E 001°21'714.2
2017-Sep-13 14:00N 40°13' E 001°28'714.0
2017-Sep-13 13:30N 40°18' E 001°35'713.9
2017-Sep-13 13:00N 40°23' E 001°42'713.1
2017-Sep-13 12:30N 40°27' E 001°48'713.2
2017-Sep-13 12:00N 40°32' E 001°54'815.2
2017-Sep-13 11:30N 40°37' E 002°01'815.7
2017-Sep-13 11:00N 40°42' E 002°09'816.2
2017-Sep-13 10:30N 40°48' E 002°17'1020.3
2017-Sep-13 10:00N 40°55' E 002°27'1020.7
2017-Sep-13 09:30N 41°02' E 002°37'1020.5
2017-Sep-13 09:00N 41°09' E 002°47'11420.0
2017-Sep-13 03:18N 42°34' E 004°28'621.3
2017-Sep-13 03:00N 42°39' E 004°33'1121.2
2017-Sep-13 02:30N 42°48' E 004°40'1020.7
2017-Sep-13 02:01N 42°57' E 004°48'1020.9
2017-Sep-13 01:30N 43°06' E 004°56'1019.6
2017-Sep-13 01:00N 43°15' E 005°00'815.4
2017-Sep-13 00:31N 43°22' E 004°58'510.1
2017-Sep-13 00:00N 43°25' E 004°51'1 1.9
2017-Sep-12 23:29N 43°25' E 004°50'0 0.0
2017-Sep-12 22:59N 43°25' E 004°50'0 0.0
2017-Sep-12 22:29N 43°25' E 004°50'0 0.0
2017-Sep-12 21:59N 43°25' E 004°50'0 0.0
2017-Sep-12 21:29N 43°25' E 004°50'0 0.0
2017-Sep-12 20:59N 43°25' E 004°50'0 0.0
2017-Sep-12 20:29N 43°25' E 004°50'0 0.0
2017-Sep-12 19:59N 43°25' E 004°50'0 0.0
2017-Sep-12 19:29N 43°25' E 004°50'0 0.0
2017-Sep-12 18:59N 43°25' E 004°50'0 0.0
2017-Sep-12 18:29N 43°25' E 004°50'0 0.0
2017-Sep-12 17:56N 43°25' E 004°50'0 0.0
2017-Sep-12 17:29N 43°25' E 004°50'0 0.0
2017-Sep-12 16:59N 43°25' E 004°50'0 0.0
2017-Sep-12 16:29N 43°25' E 004°50'0 0.0
2017-Sep-12 15:59N 43°25' E 004°50'0 0.0
2017-Sep-12 15:29N 43°25' E 004°50'0 0.0
2017-Sep-12 14:59N 43°25' E 004°50'0 0.0
2017-Sep-12 14:29N 43°25' E 004°50'0 0.0
2017-Sep-12 13:56N 43°25' E 004°50'0 0.0
2017-Sep-12 13:29N 43°25' E 004°50'0 0.0
2017-Sep-12 12:59N 43°25' E 004°50'0 0.0
2017-Sep-12 12:29N 43°25' E 004°50'0 0.0
2017-Sep-12 11:59N 43°25' E 004°50'0 0.0
2017-Sep-12 11:29N 43°25' E 004°50'0 0.0
2017-Sep-12 10:59N 43°25' E 004°50'0 0.0
2017-Sep-12 10:29N 43°25' E 004°50'0 0.0
2017-Sep-12 09:59N 43°25' E 004°50'0 0.0
2017-Sep-12 09:29N 43°25' E 004°50'0 0.0
2017-Sep-12 08:59N 43°25' E 004°50'0 0.0
2017-Sep-12 08:29N 43°25' E 004°50'0 0.0
2017-Sep-12 07:59N 43°25' E 004°50'0 0.0
2017-Sep-12 07:29N 43°25' E 004°50'0 0.0
2017-Sep-12 06:59N 43°25' E 004°50'0 0.0
2017-Sep-12 06:29N 43°25' E 004°50'0 0.0
2017-Sep-12 05:59N 43°25' E 004°50'0 0.0
2017-Sep-12 05:29N 43°25' E 004°50'0 0.0
2017-Sep-12 04:59N 43°25' E 004°50'0 0.0
2017-Sep-12 04:29N 43°25' E 004°50'0 0.0
2017-Sep-12 03:59N 43°25' E 004°50'0 0.0
2017-Sep-12 03:29N 43°25' E 004°50'0 0.0
2017-Sep-12 02:59N 43°25' E 004°50'0 0.0
2017-Sep-12 02:29N 43°25' E 004°50'0 0.0
2017-Sep-12 01:59N 43°25' E 004°50'0 0.0
2017-Sep-12 01:29N 43°25' E 004°50'0 0.0
2017-Sep-12 00:59N 43°25' E 004°50'0 0.0
2017-Sep-12 00:29N 43°25' E 004°50'0 0.0
2017-Sep-11 23:59N 43°25' E 004°50'0 0.0
2017-Sep-11 23:29N 43°25' E 004°50'0 0.0
2017-Sep-11 22:59N 43°25' E 004°50'0 0.0
2017-Sep-11 22:29N 43°25' E 004°50'0 0.0
2017-Sep-11 21:59N 43°25' E 004°50'0 0.0
2017-Sep-11 21:29N 43°25' E 004°50'0 0.0
2017-Sep-11 20:53N 43°25' E 004°50'0 0.0
2017-Sep-11 20:29N 43°25' E 004°50'0 0.0
2017-Sep-11 19:56N 43°25' E 004°50'0 0.0
2017-Sep-11 19:29N 43°25' E 004°50'0 0.0
2017-Sep-11 18:59N 43°25' E 004°50'0 0.0
2017-Sep-11 18:29N 43°25' E 004°50'0 0.0
2017-Sep-11 17:59N 43°25' E 004°50'0 0.0
2017-Sep-11 17:29N 43°25' E 004°50'0 0.0
2017-Sep-11 16:53N 43°25' E 004°50'0 0.0
2017-Sep-11 16:29N 43°25' E 004°50'0 0.0
2017-Sep-11 15:59N 43°25' E 004°50'0 0.0
2017-Sep-11 15:29N 43°25' E 004°50'0 0.0
2017-Sep-11 14:59N 43°25' E 004°50'0 0.0
2017-Sep-11 14:29N 43°25' E 004°50'0 0.0
2017-Sep-11 13:59N 43°25' E 004°50'0 0.0
2017-Sep-11 13:26N 43°25' E 004°50'0 0.0
2017-Sep-11 12:59N 43°25' E 004°50'0 0.0
2017-Sep-11 12:29N 43°25' E 004°50'0 0.0
2017-Sep-11 11:59N 43°25' E 004°50'0 0.0
2017-Sep-11 11:29N 43°25' E 004°50'0 0.0
2017-Sep-11 10:59N 43°25' E 004°50'0 0.0
2017-Sep-11 10:29N 43°25' E 004°50'0 0.0
2017-Sep-11 09:56N 43°25' E 004°50'0 0.0
2017-Sep-11 09:29N 43°25' E 004°50'0 0.0
2017-Sep-11 08:59N 43°25' E 004°50'0 0.0
2017-Sep-11 08:29N 43°25' E 004°50'0 0.0
2017-Sep-11 07:59N 43°25' E 004°50'0 0.0
2017-Sep-11 07:29N 43°25' E 004°50'0 0.0
2017-Sep-11 06:59N 43°25' E 004°50'0 0.0
2017-Sep-11 06:29N 43°25' E 004°50'0 0.0
2017-Sep-11 05:59N 43°25' E 004°50'0 0.0
2017-Sep-11 05:29N 43°25' E 004°50'0 0.0
2017-Sep-11 04:59N 43°25' E 004°50'0 0.0
2017-Sep-11 04:29N 43°25' E 004°50'0 0.0
2017-Sep-11 03:59N 43°25' E 004°50'0 0.0
2017-Sep-11 03:29N 43°25' E 004°50'0 0.0
2017-Sep-11 02:59N 43°25' E 004°50'0 0.0
2017-Sep-11 02:29N 43°25' E 004°50'0 0.0
2017-Sep-11 01:59N 43°25' E 004°50'0 0.0
2017-Sep-11 01:29N 43°25' E 004°50'0 0.0
2017-Sep-11 00:59N 43°25' E 004°50'0 0.0
2017-Sep-11 00:29N 43°25' E 004°50'0 0.0
2017-Sep-10 23:59N 43°25' E 004°50'0 0.0
2017-Sep-10 23:29N 43°25' E 004°50'0 0.0
2017-Sep-10 22:59N 43°25' E 004°50'0 0.0
2017-Sep-10 22:29N 43°25' E 004°50'0 0.0
2017-Sep-10 21:59N 43°25' E 004°50'0 0.0
2017-Sep-10 21:29N 43°25' E 004°50'0 0.0
2017-Sep-10 20:59N 43°25' E 004°50'0 0.0
2017-Sep-10 20:29N 43°25' E 004°50'0 0.0
2017-Sep-10 19:59N 43°25' E 004°50'0 0.0
2017-Sep-10 19:29N 43°25' E 004°50'0 0.0
2017-Sep-10 18:59N 43°25' E 004°50'0 0.0
2017-Sep-10 18:29N 43°25' E 004°50'0 0.0
2017-Sep-10 17:59N 43°25' E 004°50'0 0.0
2017-Sep-10 17:29N 43°25' E 004°50'0 0.0
2017-Sep-10 17:00N 43°25' E 004°50'1 1.1
2017-Sep-10 16:30N 43°25' E 004°51'3 6.0
2017-Sep-10 16:00N 43°24' E 004°55'5 9.5
2017-Sep-10 15:30N 43°20' E 004°59'4 8.3
2017-Sep-10 15:00N 43°16' E 005°01'9 8.3
2017-Sep-10 13:57N 43°09' E 005°07'6 8.7
2017-Sep-10 13:12N 43°05' E 005°14'210.0
2017-Sep-10 12:59N 43°04' E 005°16'610.3
2017-Sep-10 12:25N 42°60' E 005°22'410.2
2017-Sep-10 12:01N 42°57' E 005°27'510.0
2017-Sep-10 11:29N 42°54' E 005°32'67 9.7
2017-Sep-10 04:39N 43°08' E 007°01'212.8
2017-Sep-10 04:30N 43°09' E 007°03'713.1
2017-Sep-10 04:00N 43°13' E 007°11'713.3
2017-Sep-10 03:30N 43°17' E 007°18'713.5
2017-Sep-10 03:00N 43°21' E 007°25'713.5
2017-Sep-10 02:28N 43°26' E 007°33'4312.9
2017-Sep-09 23:07N 43°53' E 008°19'312.8
2017-Sep-09 22:53N 43°56' E 008°21'512.6
2017-Sep-09 22:30N 43°60' E 008°24'612.4
2017-Sep-09 22:00N 44°05' E 008°29'612.4
2017-Sep-09 21:30N 44°10' E 008°33'612.1
2017-Sep-09 21:00N 44°16' E 008°37'612.4
2017-Sep-09 20:30N 44°21' E 008°42'510.0
2017-Sep-09 20:00N 44°25' E 008°46'1 1.4
2017-Sep-09 19:27N 44°25' E 008°47'0 0.0
2017-Sep-09 19:00N 44°25' E 008°47'0 0.0
2017-Sep-09 18:27N 44°25' E 008°47'0 0.0
2017-Sep-09 18:00N 44°25' E 008°47'0 0.0
2017-Sep-09 17:30N 44°25' E 008°47'0 0.0
2017-Sep-09 17:00N 44°25' E 008°47'0 0.0
2017-Sep-09 16:30N 44°25' E 008°47'0 0.0
2017-Sep-09 16:00N 44°25' E 008°47'0 0.0
2017-Sep-09 15:30N 44°25' E 008°47'0 0.0
2017-Sep-09 15:00N 44°25' E 008°47'0 0.0
2017-Sep-09 14:30N 44°25' E 008°47'0 0.0
2017-Sep-09 14:00N 44°25' E 008°47'0 0.0
2017-Sep-09 13:30N 44°25' E 008°47'0 0.0
2017-Sep-09 13:00N 44°25' E 008°47'0 0.0
2017-Sep-09 12:30N 44°25' E 008°47'0 0.0
2017-Sep-09 11:57N 44°25' E 008°47'0 0.0
2017-Sep-09 11:30N 44°25' E 008°47'0 0.0
2017-Sep-09 11:00N 44°25' E 008°47'0 0.0
2017-Sep-09 10:30N 44°25' E 008°47'  
Track history (hours):
 
Tides and Currents Weather Stations Pressure Air Temp Water Temp Dewpoint Dewpoint Depression Visibility Wind Speed Wind Dir Waves Ship Positions

MSC Clorinda

Last reported at 2017-Sep-19 10:01 UTC. Time now 2017-Sep-19 15:33 UTC.
Position N 34°48' E 019°02'.

Length 366 m; draft 14.3 m.

Type: Ship (hazmat cat A). MMSI: 373233000.

Date/timePositionNaut miles runAvg speedWind from/ knotsBaromVisibWave heightAir tempDewpointWater temp
2017-Sep-19 10:01N 34°48' E 019°02'020.4
2017-Sep-19 10:00N 34°48' E 019°02'22020.2
2017-Sep-18 23:04N 35°46' E 014°41'8 0.5
2017-Sep-18 08:35N 35°49' E 014°33'0 0.1
2017-Sep-18 08:26N 35°49' E 014°33'0 0.0
2017-Sep-18 07:59N 35°49' E 014°33'0 0.0
2017-Sep-18 07:14N 35°49' E 014°33'0 0.0
2017-Sep-18 06:56N 35°49' E 014°33'0 0.0
2017-Sep-18 05:50N 35°49' E 014°33'0 0.5
2017-Sep-18 05:31N 35°49' E 014°33'2 4.7
2017-Sep-18 05:01N 35°47' E 014°34'5 9.3
2017-Sep-18 04:29N 35°44' E 014°29'716.1
2017-Sep-18 04:01N 35°45' E 014°20'1019.1
2017-Sep-18 03:30N 35°50' E 014°10'1019.1
2017-Sep-18 03:00N 35°55' E 014°00'919.1
2017-Sep-18 02:30N 36°00' E 013°50'1019.4
2017-Sep-18 02:00N 36°06' E 013°40'1119.3
2017-Sep-18 01:25N 36°12' E 013°28'1019.1
2017-Sep-18 00:54N 36°17' E 013°18'1118.9
2017-Sep-18 00:20N 36°23' E 013°07'618.9
2017-Sep-18 00:00N 36°26' E 013°00'918.9
2017-Sep-17 23:30N 36°31' E 012°51'1019.0
2017-Sep-17 23:00N 36°37' E 012°41'919.1
2017-Sep-17 22:30N 36°42' E 012°31'1019.2
2017-Sep-17 22:00N 36°47' E 012°20'1019.5
2017-Sep-17 21:30N 36°52' E 012°10'46620.0
2017-Sep-16 22:12N 40°40' E 003°29'422.0
2017-Sep-16 22:00N 40°42' E 003°24'1121.8
2017-Sep-16 21:30N 40°48' E 003°12'1121.4
2017-Sep-16 21:00N 40°54' E 003°00'1120.8
2017-Sep-16 20:30N 40°59' E 002°48'1020.4
2017-Sep-16 20:00N 41°04' E 002°37'1020.0
2017-Sep-16 19:30N 41°09' E 002°26'916.8
2017-Sep-16 18:58N 41°14' E 002°16'5 0.2
2017-Sep-15 18:03N 41°18' E 002°10'1 5.9
2017-Sep-15 17:48N 41°17' E 002°11'7 4.9
2017-Sep-15 16:21N 41°11' E 002°07'412.2
2017-Sep-15 16:00N 41°07' E 002°04'816.5
2017-Sep-15 15:30N 41°00' E 001°57'919.1
2017-Sep-15 15:00N 40°53' E 001°50'1019.1
2017-Sep-15 14:30N 40°45' E 001°43'919.0
2017-Sep-15 14:00N 40°37' E 001°36'918.5
2017-Sep-15 13:30N 40°29' E 001°29'918.3
2017-Sep-15 13:00N 40°22' E 001°22'918.3
2017-Sep-15 12:31N 40°14' E 001°15'918.3
2017-Sep-15 12:00N 40°07' E 001°08'918.4
2017-Sep-15 11:30N 39°59' E 001°02'22 0.5
2017-Sep-13 17:27N 39°43' E 000°41'613.1
2017-Sep-13 16:58N 39°46' E 000°49'613.0
2017-Sep-13 16:30N 39°49' E 000°55'713.5
2017-Sep-13 15:59N 39°54' E 001°01'613.5
2017-Sep-13 15:30N 39°59' E 001°08'714.5
2017-Sep-13 15:00N 40°04' E 001°14'714.5
2017-Sep-13 14:30N 40°09' E 001°21'714.2
2017-Sep-13 14:00N 40°13' E 001°28'714.0
2017-Sep-13 13:30N 40°18' E 001°35'713.9
2017-Sep-13 13:00N 40°23' E 001°42'713.1
2017-Sep-13 12:30N 40°27' E 001°48'713.2
2017-Sep-13 12:00N 40°32' E 001°54'815.2
2017-Sep-13 11:30N 40°37' E 002°01'815.7
2017-Sep-13 11:00N 40°42' E 002°09'816.2
2017-Sep-13 10:30N 40°48' E 002°17'1020.3
2017-Sep-13 10:00N 40°55' E 002°27'1020.7
2017-Sep-13 09:30N 41°02' E 002°37'1020.5
2017-Sep-13 09:00N 41°09' E 002°47'11420.0
2017-Sep-13 03:18N 42°34' E 004°28'621.3
2017-Sep-13 03:00N 42°39' E 004°33'1121.2
2017-Sep-13 02:30N 42°48' E 004°40'1020.7
2017-Sep-13 02:01N 42°57' E 004°48'1020.9
2017-Sep-13 01:30N 43°06' E 004°56'1019.6
2017-Sep-13 01:00N 43°15' E 005°00'815.4
2017-Sep-13 00:31N 43°22' E 004°58'510.1
2017-Sep-13 00:00N 43°25' E 004°51'1 1.9
2017-Sep-12 23:29N 43°25' E 004°50'0 0.0
2017-Sep-12 22:59N 43°25' E 004°50'0 0.0
2017-Sep-12 22:29N 43°25' E 004°50'0 0.0
2017-Sep-12 21:59N 43°25' E 004°50'0 0.0
2017-Sep-12 21:29N 43°25' E 004°50'0 0.0
2017-Sep-12 20:59N 43°25' E 004°50'0 0.0
2017-Sep-12 20:29N 43°25' E 004°50'0 0.0
2017-Sep-12 19:59N 43°25' E 004°50'0 0.0
2017-Sep-12 19:29N 43°25' E 004°50'0 0.0
2017-Sep-12 18:59N 43°25' E 004°50'0 0.0
2017-Sep-12 18:29N 43°25' E 004°50'0 0.0
2017-Sep-12 17:56N 43°25' E 004°50'0 0.0
2017-Sep-12 17:29N 43°25' E 004°50'0 0.0
2017-Sep-12 16:59N 43°25' E 004°50'0 0.0
2017-Sep-12 16:29N 43°25' E 004°50'0 0.0
2017-Sep-12 15:59N 43°25' E 004°50'0 0.0
2017-Sep-12 15:29N 43°25' E 004°50'0 0.0
2017-Sep-12 14:59N 43°25' E 004°50'0 0.0
2017-Sep-12 14:29N 43°25' E 004°50'0 0.0
2017-Sep-12 13:56N 43°25' E 004°50'0 0.0
2017-Sep-12 13:29N 43°25' E 004°50'0 0.0
2017-Sep-12 12:59N 43°25' E 004°50'0 0.0
2017-Sep-12 12:29N 43°25' E 004°50'0 0.0
2017-Sep-12 11:59N 43°25' E 004°50'0 0.0
2017-Sep-12 11:29N 43°25' E 004°50'0 0.0
2017-Sep-12 10:59N 43°25' E 004°50'0 0.0
2017-Sep-12 10:29N 43°25' E 004°50'0 0.0
2017-Sep-12 09:59N 43°25' E 004°50'0 0.0
2017-Sep-12 09:29N 43°25' E 004°50'0 0.0
2017-Sep-12 08:59N 43°25' E 004°50'0 0.0
2017-Sep-12 08:29N 43°25' E 004°50'0 0.0
2017-Sep-12 07:59N 43°25' E 004°50'0 0.0
2017-Sep-12 07:29N 43°25' E 004°50'0 0.0
2017-Sep-12 06:59N 43°25' E 004°50'0 0.0
2017-Sep-12 06:29N 43°25' E 004°50'0 0.0
2017-Sep-12 05:59N 43°25' E 004°50'0 0.0
2017-Sep-12 05:29N 43°25' E 004°50'0 0.0
2017-Sep-12 04:59N 43°25' E 004°50'0 0.0
2017-Sep-12 04:29N 43°25' E 004°50'0 0.0
2017-Sep-12 03:59N 43°25' E 004°50'0 0.0
2017-Sep-12 03:29N 43°25' E 004°50'0 0.0
2017-Sep-12 02:59N 43°25' E 004°50'0 0.0
2017-Sep-12 02:29N 43°25' E 004°50'0 0.0
2017-Sep-12 01:59N 43°25' E 004°50'0 0.0
2017-Sep-12 01:29N 43°25' E 004°50'0 0.0
2017-Sep-12 00:59N 43°25' E 004°50'0 0.0
2017-Sep-12 00:29N 43°25' E 004°50'0 0.0
2017-Sep-11 23:59N 43°25' E 004°50'0 0.0
2017-Sep-11 23:29N 43°25' E 004°50'0 0.0
2017-Sep-11 22:59N 43°25' E 004°50'0 0.0
2017-Sep-11 22:29N 43°25' E 004°50'0 0.0
2017-Sep-11 21:59N 43°25' E 004°50'0 0.0
2017-Sep-11 21:29N 43°25' E 004°50'0 0.0
2017-Sep-11 20:53N 43°25' E 004°50'0 0.0
2017-Sep-11 20:29N 43°25' E 004°50'0 0.0
2017-Sep-11 19:56N 43°25' E 004°50'0 0.0
2017-Sep-11 19:29N 43°25' E 004°50'0 0.0
2017-Sep-11 18:59N 43°25' E 004°50'0 0.0
2017-Sep-11 18:29N 43°25' E 004°50'0 0.0
2017-Sep-11 17:59N 43°25' E 004°50'0 0.0
2017-Sep-11 17:29N 43°25' E 004°50'0 0.0
2017-Sep-11 16:53N 43°25' E 004°50'0 0.0
2017-Sep-11 16:29N 43°25' E 004°50'0 0.0
2017-Sep-11 15:59N 43°25' E 004°50'0 0.0
2017-Sep-11 15:29N 43°25' E 004°50'0 0.0
2017-Sep-11 14:59N 43°25' E 004°50'0 0.0
2017-Sep-11 14:29N 43°25' E 004°50'0 0.0
2017-Sep-11 13:59N 43°25' E 004°50'0 0.0
2017-Sep-11 13:26N 43°25' E 004°50'0 0.0
2017-Sep-11 12:59N 43°25' E 004°50'0 0.0
2017-Sep-11 12:29N 43°25' E 004°50'0 0.0
2017-Sep-11 11:59N 43°25' E 004°50'0 0.0
2017-Sep-11 11:29N 43°25' E 004°50'0 0.0
2017-Sep-11 10:59N 43°25' E 004°50'0 0.0
2017-Sep-11 10:29N 43°25' E 004°50'0 0.0
2017-Sep-11 09:56N 43°25' E 004°50'0 0.0
2017-Sep-11 09:29N 43°25' E 004°50'0 0.0
2017-Sep-11 08:59N 43°25' E 004°50'0 0.0
2017-Sep-11 08:29N 43°25' E 004°50'0 0.0
2017-Sep-11 07:59N 43°25' E 004°50'0 0.0
2017-Sep-11 07:29N 43°25' E 004°50'0 0.0
2017-Sep-11 06:59N 43°25' E 004°50'0 0.0
2017-Sep-11 06:29N 43°25' E 004°50'0 0.0
2017-Sep-11 05:59N 43°25' E 004°50'0 0.0
2017-Sep-11 05:29N 43°25' E 004°50'0 0.0
2017-Sep-11 04:59N 43°25' E 004°50'0 0.0
2017-Sep-11 04:29N 43°25' E 004°50'0 0.0
2017-Sep-11 03:59N 43°25' E 004°50'0 0.0
2017-Sep-11 03:29N 43°25' E 004°50'0 0.0
2017-Sep-11 02:59N 43°25' E 004°50'0 0.0
2017-Sep-11 02:29N 43°25' E 004°50'0 0.0
2017-Sep-11 01:59N 43°25' E 004°50'0 0.0
2017-Sep-11 01:29N 43°25' E 004°50'0 0.0
2017-Sep-11 00:59N 43°25' E 004°50'0 0.0
2017-Sep-11 00:29N 43°25' E 004°50'0 0.0
2017-Sep-10 23:59N 43°25' E 004°50'0 0.0
2017-Sep-10 23:29N 43°25' E 004°50'0 0.0
2017-Sep-10 22:59N 43°25' E 004°50'0 0.0
2017-Sep-10 22:29N 43°25' E 004°50'0 0.0
2017-Sep-10 21:59N 43°25' E 004°50'0 0.0
2017-Sep-10 21:29N 43°25' E 004°50'0 0.0
2017-Sep-10 20:59N 43°25' E 004°50'0 0.0
2017-Sep-10 20:29N 43°25' E 004°50'0 0.0
2017-Sep-10 19:59N 43°25' E 004°50'0 0.0
2017-Sep-10 19:29N 43°25' E 004°50'0 0.0
2017-Sep-10 18:59N 43°25' E 004°50'0 0.0
2017-Sep-10 18:29N 43°25' E 004°50'0 0.0
2017-Sep-10 17:59N 43°25' E 004°50'0 0.0
2017-Sep-10 17:29N 43°25' E 004°50'0 0.0
2017-Sep-10 17:00N 43°25' E 004°50'1 1.1
2017-Sep-10 16:30N 43°25' E 004°51'3 6.0
2017-Sep-10 16:00N 43°24' E 004°55'5 9.5
2017-Sep-10 15:30N 43°20' E 004°59'4 8.3
2017-Sep-10 15:00N 43°16' E 005°01'9 8.3
2017-Sep-10 13:57N 43°09' E 005°07'6 8.7
2017-Sep-10 13:12N 43°05' E 005°14'210.0
2017-Sep-10 12:59N 43°04' E 005°16'610.3
2017-Sep-10 12:25N 42°60' E 005°22'410.2
2017-Sep-10 12:01N 42°57' E 005°27'510.0
2017-Sep-10 11:29N 42°54' E 005°32'67 9.7
2017-Sep-10 04:39N 43°08' E 007°01'212.8
2017-Sep-10 04:30N 43°09' E 007°03'713.1
2017-Sep-10 04:00N 43°13' E 007°11'713.3
2017-Sep-10 03:30N 43°17' E 007°18'713.5
2017-Sep-10 03:00N 43°21' E 007°25'713.5
2017-Sep-10 02:28N 43°26' E 007°33'4312.9
2017-Sep-09 23:07N 43°53' E 008°19'312.8
2017-Sep-09 22:53N 43°56' E 008°21'512.6
2017-Sep-09 22:30N 43°60' E 008°24'612.4
2017-Sep-09 22:00N 44°05' E 008°29'612.4
2017-Sep-09 21:30N 44°10' E 008°33'612.1
2017-Sep-09 21:00N 44°16' E 008°37'612.4
2017-Sep-09 20:30N 44°21' E 008°42'510.0
2017-Sep-09 20:00N 44°25' E 008°46'1 1.4
2017-Sep-09 19:27N 44°25' E 008°47'0 0.0
2017-Sep-09 19:00N 44°25' E 008°47'0 0.0
2017-Sep-09 18:27N 44°25' E 008°47'0 0.0
2017-Sep-09 18:00N 44°25' E 008°47'0 0.0
2017-Sep-09 17:30N 44°25' E 008°47'0 0.0
2017-Sep-09 17:00N 44°25' E 008°47'0 0.0
2017-Sep-09 16:30N 44°25' E 008°47'0 0.0
2017-Sep-09 16:00N 44°25' E 008°47'0 0.0
2017-Sep-09 15:30N 44°25' E 008°47'0 0.0
2017-Sep-09 15:00N 44°25' E 008°47'0 0.0
2017-Sep-09 14:30N 44°25' E 008°47'0 0.0
2017-Sep-09 14:00N 44°25' E 008°47'0 0.0
2017-Sep-09 13:30N 44°25' E 008°47'0 0.0
2017-Sep-09 13:00N 44°25' E 008°47'0 0.0
2017-Sep-09 12:30N 44°25' E 008°47'0 0.0
2017-Sep-09 11:57N 44°25' E 008°47'0 0.0
2017-Sep-09 11:30N 44°25' E 008°47'0 0.0
2017-Sep-09 11:00N 44°25' E 008°47'0 0.0
2017-Sep-09 10:30N 44°25' E 008°47'  

Dump ship's entire track history